Time;durP1;ratioP1;P1;durP2;ratioP2;P2;SDS_P1;SDS_P2;PMS_P1;PMS_P2;Temp;Humidity;BMP_temperature;BMP_pressure;BME280_temperature;BME280_humidity;BME280_pressure;Samples;Min_cycle;Max_cycle;Signal;HPM_P1;HPM_P2
2022/06/01 00:00:09;;;;;;;8.43;4.13;;;;;;;;;;5019400;28;20509;-67
2022/06/01 00:02:34;;;;;;;9.52;4.63;;;;;;;;;;5018193;28;20315;-68
2022/06/01 00:05:00;;;;;;;8.63;4.55;;;;;;;;;;5020317;28;20470;-66
2022/06/01 00:07:25;;;;;;;9.40;4.78;;;;;;;;;;5024180;28;20025;-67
2022/06/01 00:09:50;;;;;;;8.90;4.97;;;;;;;;;;5026045;28;20013;-67
2022/06/01 00:12:15;;;;;;;7.57;4.97;;;;;;;;;;5023424;28;20033;-67
2022/06/01 00:14:41;;;;;;;7.33;4.77;;;;;;;;;;5022079;28;20618;-66
2022/06/01 00:17:06;;;;;;;8.00;5.30;;;;;;;;;;5014584;28;20374;-67
2022/06/01 00:19:31;;;;;;;6.77;4.93;;;;;;;;;;5022413;28;20272;-66
2022/06/01 00:22:11;;;;;;;8.63;5.17;;;;;;;;;;5028167;28;20299;-67
2022/06/01 00:24:38;;;;;;;;;;;;;;;;;;5025546;28;20329;-67
2022/06/01 00:27:04;;;;;;;10.90;5.03;;;;;;;;;;5039372;23;19962;-67
2022/06/01 00:29:29;;;;;;;10.00;4.75;;;;;;;;;;5031520;28;20025;-67
2022/06/01 00:31:54;;;;;;;7.25;4.32;;;;;;;;;;5029763;28;20013;-67
2022/06/01 00:34:19;;;;;;;9.37;4.43;;;;;;;;;;5031264;28;20079;-67
2022/06/01 00:36:44;;;;;;;12.33;5.13;;;;;;;;;;5032586;28;20299;-66
2022/06/01 00:39:10;;;;;;;9.47;5.63;;;;;;;;;;5027086;28;20358;-66
2022/06/01 00:41:35;;;;;;;8.07;4.27;;;;;;;;;;5030274;28;20291;-67
2022/06/01 00:44:00;;;;;;;7.20;4.47;;;;;;;;;;5031227;28;20264;-67
2022/06/01 00:46:25;;;;;;;11.23;5.32;;;;;;;;;;5024100;28;20858;-67
2022/06/01 00:48:52;;;;;;;9.23;4.63;;;;;;;;;;5025820;28;20025;-67
2022/06/01 00:51:19;;;;;;;9.13;5.43;;;;;;;;;;5024701;28;20272;-67
2022/06/01 00:53:45;;;;;;;7.47;5.05;;;;;;;;;;5031700;28;20156;-67
2022/06/01 00:56:16;;;;;;;6.82;4.40;;;;;;;;;;5028120;28;20493;-67
2022/06/01 00:58:43;;;;;;;9.35;5.00;;;;;;;;;;5028495;28;20401;-66
2022/06/01 01:01:11;;;;;;;9.57;6.38;;;;;;;;;;5022478;28;20014;-67
2022/06/01 01:03:39;;;;;;;9.30;6.57;;;;;;;;;;5033429;28;20024;-66
2022/06/01 01:06:12;;;;;;;7.60;5.18;;;;;;;;;;5027743;28;20020;-67
2022/06/01 01:08:38;;;;;;;9.40;4.07;;;;;;;;;;5031924;28;20029;-66
2022/06/01 01:11:05;;;;;;;7.65;5.45;;;;;;;;;;5024214;28;20392;-66
2022/06/01 01:13:30;;;;;;;7.95;4.13;;;;;;;;;;5032924;28;20025;-66
2022/06/01 01:15:56;;;;;;;7.83;4.77;;;;;;;;;;5028394;28;20032;-66
2022/06/01 01:18:22;;;;;;;8.70;4.93;;;;;;;;;;5030257;28;20854;-67
2022/06/01 01:20:55;;;;;;;10.27;5.18;;;;;;;;;;5023560;28;20272;-66
2022/06/01 01:23:23;;;;;;;7.63;5.43;;;;;;;;;;5026586;28;20475;-68
2022/06/01 01:25:48;;;;;;;14.65;5.40;;;;;;;;;;5023371;28;20025;-66
2022/06/01 01:28:14;;;;;;;8.50;5.13;;;;;;;;;;5029198;28;20068;-67
2022/06/01 01:30:57;;;;;;;9.18;5.25;;;;;;;;;;5026727;28;20687;-67
2022/06/01 01:33:24;;;;;;;11.32;5.35;;;;;;;;;;5026467;28;20481;-66
2022/06/01 01:35:52;;;;;;;9.50;5.65;;;;;;;;;;5029039;28;20398;-67
2022/06/01 01:38:22;;;;;;;7.93;4.80;;;;;;;;;;5024212;28;20045;-67
2022/06/01 01:40:47;;;;;;;;;;;;;;;;;;5026849;28;20379;-67
2022/06/01 01:43:13;;;;;;;15.68;5.60;;;;;;;;;;5031941;28;20285;-66
2022/06/01 01:45:38;;;;;;;8.50;5.03;;;;;;;;;;5030122;28;20456;-66
2022/06/01 01:48:04;;;;;;;10.13;4.53;;;;;;;;;;5029203;28;20021;-66
2022/06/01 01:50:29;;;;;;;8.10;5.57;;;;;;;;;;5027964;28;20284;-66
2022/06/01 01:52:54;;;;;;;9.67;5.80;;;;;;;;;;5032150;28;20031;-66
2022/06/01 01:55:23;;;;;;;9.90;5.97;;;;;;;;;;5027062;28;20334;-67
2022/06/01 01:57:54;;;;;;;7.35;4.80;;;;;;;;;;5022373;28;20128;-69
2022/06/01 02:00:24;;;;;;;13.60;6.00;;;;;;;;;;5028327;28;20536;-66
2022/06/01 02:02:50;;;;;;;7.57;5.13;;;;;;;;;;5027180;28;20022;-67
2022/06/01 02:06:09;;;;;;;8.63;5.30;;;;;;;;;;5020675;28;20092;-66
2022/06/01 02:08:41;;;;;;;10.93;5.65;;;;;;;;;;4942741;29;20033;-67
2022/06/01 02:14:21;;;;;;;10.75;5.47;;;;;;;;;;5027817;28;20051;-66
2022/06/01 02:16:49;;;;;;;10.80;5.85;;;;;;;;;;5032167;28;20317;-66
2022/06/01 02:19:17;;;;;;;12.20;5.82;;;;;;;;;;5026323;28;20010;-67
2022/06/01 02:21:42;;;;;;;9.13;5.55;;;;;;;;;;5031474;28;20037;-66
2022/06/01 02:24:08;;;;;;;7.85;5.43;;;;;;;;;;5018774;28;20017;-67
2022/06/01 02:26:34;;;;;;;9.77;5.75;;;;;;;;;;5029702;28;20107;-66
2022/06/01 02:29:02;;;;;;;9.00;5.72;;;;;;;;;;5030302;28;20022;-67
2022/06/01 02:31:28;;;;;;;8.88;5.57;;;;;;;;;;5026819;28;20047;-67
2022/06/01 02:33:54;;;;;;;16.15;6.10;;;;;;;;;;5030049;28;20503;-66
2022/06/01 02:36:20;;;;;;;8.63;5.50;;;;;;;;;;5030457;28;20060;-66
2022/06/01 02:38:48;;;;;;;13.63;5.85;;;;;;;;;;5024848;28;20022;-67
2022/06/01 02:43:57;;;;;;;8.45;4.80;;;;;;;;;;5029224;28;20380;-67
2022/06/01 02:46:23;;;;;;;10.77;6.18;;;;;;;;;;5028742;28;20025;-66
2022/06/01 02:48:49;;;;;;;14.57;5.70;;;;;;;;;;5025792;28;20222;-66
2022/06/01 02:51:16;;;;;;;10.38;5.80;;;;;;;;;;5027870;28;20036;-66
2022/06/01 02:53:42;;;;;;;8.18;5.57;;;;;;;;;;5025330;28;20107;-66
2022/06/01 02:56:07;;;;;;;9.90;5.70;;;;;;;;;;5022147;28;20065;-67
2022/06/01 02:58:34;;;;;;;9.82;5.75;;;;;;;;;;5024445;28;20280;-66
2022/06/01 03:01:00;;;;;;;10.70;6.60;;;;;;;;;;5026289;28;20375;-66
2022/06/01 03:03:26;;;;;;;11.18;6.10;;;;;;;;;;5032465;28;20018;-67
2022/06/01 03:05:51;;;;;;;7.90;5.23;;;;;;;;;;5030418;28;20420;-66
2022/06/01 03:08:16;;;;;;;9.23;5.63;;;;;;;;;;5024633;28;20296;-67
2022/06/01 03:10:41;;;;;;;9.70;5.43;;;;;;;;;;5031432;28;20271;-66
2022/06/01 03:13:07;;;;;;;6.80;4.85;;;;;;;;;;5032578;28;20025;-66
2022/06/01 03:15:32;;;;;;;9.75;5.82;;;;;;;;;;5029925;28;20497;-66
2022/06/01 03:17:57;;;;;;;16.10;5.60;;;;;;;;;;5032046;28;20009;-66
2022/06/01 03:20:24;;;;;;;11.88;6.10;;;;;;;;;;5024749;28;20021;-66
2022/06/01 03:22:49;;;;;;;9.45;6.30;;;;;;;;;;5032404;28;20689;-66
2022/06/01 03:25:19;;;;;;;10.90;5.93;;;;;;;;;;5026053;28;20018;-67
2022/06/01 03:27:45;;;;;;;9.93;5.53;;;;;;;;;;5026497;28;20032;-67
2022/06/01 03:30:11;;;;;;;13.13;6.25;;;;;;;;;;5013202;28;20389;-67
2022/06/01 03:32:37;;;;;;;11.10;6.10;;;;;;;;;;5030702;28;20021;-66
2022/06/01 03:35:03;;;;;;;10.07;5.45;;;;;;;;;;5020641;28;20431;-67
2022/06/01 03:37:28;;;;;;;11.68;5.68;;;;;;;;;;5029990;28;20028;-66
2022/06/01 03:39:53;;;;;;;10.07;5.23;;;;;;;;;;5010178;28;20446;-67
2022/06/01 03:42:18;;;;;;;11.20;5.60;;;;;;;;;;5030032;28;20271;-67
2022/06/01 03:47:27;;;;;;;13.25;5.75;;;;;;;;;;5030658;28;20345;-67
2022/06/01 03:49:53;;;;;;;9.63;6.30;;;;;;;;;;5026185;28;20017;-67
2022/06/01 03:52:19;;;;;;;10.70;6.25;;;;;;;;;;5006347;28;20776;-66
2022/06/01 03:54:45;;;;;;;9.85;5.80;;;;;;;;;;5027896;28;20022;-67
2022/06/01 03:57:12;;;;;;;9.02;6.05;;;;;;;;;;5028601;28;20113;-66
2022/06/01 03:59:37;;;;;;;9.93;6.25;;;;;;;;;;5025760;28;20025;-67
2022/06/01 04:02:04;;;;;;;11.87;6.47;;;;;;;;;;5028300;28;20026;-66
2022/06/01 04:04:29;;;;;;;9.02;6.22;;;;;;;;;;5029031;28;20756;-67
2022/06/01 04:06:54;;;;;;;11.88;6.10;;;;;;;;;;5024961;28;20033;-66
2022/06/01 04:09:20;;;;;;;7.43;5.03;;;;;;;;;;5028804;28;20117;-66
2022/06/01 04:11:45;;;;;;;11.88;5.85;;;;;;;;;;5034116;28;20272;-66
2022/06/01 04:14:10;;;;;;;9.52;5.82;;;;;;;;;;5023136;28;20044;-66
2022/06/01 04:16:35;;;;;;;10.60;6.03;;;;;;;;;;5027223;28;20069;-67
2022/06/01 04:19:00;;;;;;;6.83;5.37;;;;;;;;;;5035311;28;20276;-67
2022/06/01 04:21:27;;;;;;;9.63;5.60;;;;;;;;;;5031940;28;20359;-67
2022/06/01 04:23:55;;;;;;;15.50;5.97;;;;;;;;;;5028248;28;20271;-67
2022/06/01 04:26:20;;;;;;;9.27;5.97;;;;;;;;;;5030650;28;20066;-67
2022/06/01 04:28:45;;;;;;;11.17;5.57;;;;;;;;;;5029336;28;20104;-66
2022/06/01 04:31:11;;;;;;;10.97;5.47;;;;;;;;;;5033665;28;20716;-67
2022/06/01 04:33:38;;;;;;;9.70;5.82;;;;;;;;;;5032556;28;20294;-66
2022/06/01 04:36:03;;;;;;;8.88;5.75;;;;;;;;;;5025487;28;20025;-67
2022/06/01 04:38:30;;;;;;;15.50;6.53;;;;;;;;;;5032246;28;20367;-66
2022/06/01 04:40:55;;;;;;;12.25;5.78;;;;;;;;;;5030294;28;20055;-66
2022/06/01 04:43:21;;;;;;;9.97;5.93;;;;;;;;;;5030865;28;20018;-66
2022/06/01 04:45:49;;;;;;;11.68;5.95;;;;;;;;;;5025988;28;20601;-66
2022/06/01 04:48:14;;;;;;;12.50;5.53;;;;;;;;;;5029739;28;20096;-66
2022/06/01 04:50:42;;;;;;;10.63;5.37;;;;;;;;;;5027660;28;20101;-66
2022/06/01 04:53:08;;;;;;;9.35;5.75;;;;;;;;;;5025620;28;20338;-66
2022/06/01 04:55:33;;;;;;;8.05;5.70;;;;;;;;;;5023219;28;20025;-66
2022/06/01 04:57:58;;;;;;;9.43;5.70;;;;;;;;;;5019088;28;20475;-66
2022/06/01 05:00:24;;;;;;;6.57;5.00;;;;;;;;;;5025748;28;20310;-67
2022/06/01 05:02:50;;;;;;;9.07;5.50;;;;;;;;;;5029964;28;20276;-67
2022/06/01 05:05:15;;;;;;;8.70;5.45;;;;;;;;;;5023904;28;20494;-67
2022/06/01 05:07:40;;;;;;;12.63;5.00;;;;;;;;;;5032328;28;20421;-67
2022/06/01 05:10:05;;;;;;;10.63;5.87;;;;;;;;;;5022192;28;20271;-67
2022/06/01 05:12:30;;;;;;;8.75;5.18;;;;;;;;;;5014826;28;20272;-67
2022/06/01 05:14:55;;;;;;;10.40;5.32;;;;;;;;;;5019803;28;20094;-66
2022/06/01 05:17:21;;;;;;;13.43;5.13;;;;;;;;;;5028582;28;20695;-66
2022/06/01 05:19:46;;;;;;;9.03;5.50;;;;;;;;;;5028194;28;20457;-67
2022/06/01 05:22:11;;;;;;;10.10;3.37;;;;;;;;;;5025630;28;20381;-66
2022/06/01 05:24:36;;;;;;;9.70;4.30;;;;;;;;;;5030966;28;20295;-66
2022/06/01 05:27:02;;;;;;;8.15;4.22;;;;;;;;;;5025164;28;20026;-66
2022/06/01 05:29:28;;;;;;;5.28;3.90;;;;;;;;;;5030371;28;20029;-67
2022/06/01 05:31:54;;;;;;;7.88;4.28;;;;;;;;;;5024493;28;20033;-66
2022/06/01 05:34:19;;;;;;;7.80;5.15;;;;;;;;;;5025625;28;20025;-67
2022/06/01 05:36:44;;;;;;;11.35;4.55;;;;;;;;;;5024882;28;20478;-66
2022/06/01 05:39:10;;;;;;;13.13;4.70;;;;;;;;;;5027936;28;20463;-66
2022/06/01 05:41:35;;;;;;;7.43;4.95;;;;;;;;;;5030762;28;20113;-67
2022/06/01 05:44:00;;;;;;;17.48;4.88;;;;;;;;;;5031435;28;20014;-67
2022/06/01 05:46:26;;;;;;;9.05;4.63;;;;;;;;;;5027705;28;20094;-66
2022/06/01 05:48:51;;;;;;;8.07;4.75;;;;;;;;;;5025049;28;20207;-67
2022/06/01 05:51:16;;;;;;;9.55;5.00;;;;;;;;;;5026731;28;20045;-67
2022/06/01 05:53:42;;;;;;;11.40;4.33;;;;;;;;;;5020339;28;20036;-66
2022/06/01 05:56:07;;;;;;;8.05;3.33;;;;;;;;;;5030320;28;20319;-66
2022/06/01 05:58:32;;;;;;;13.25;5.38;;;;;;;;;;5030351;28;20021;-67
2022/06/01 06:01:00;;;;;;;8.88;5.00;;;;;;;;;;5025419;28;20079;-66
2022/06/01 06:03:26;;;;;;;8.50;4.93;;;;;;;;;;5024650;28;20017;-66
2022/06/01 06:08:35;;;;;;;16.52;5.45;;;;;;;;;;5026230;28;20079;-67
2022/06/01 06:11:01;;;;;;;14.45;5.55;;;;;;;;;;5028872;28;20116;-66
2022/06/01 06:13:26;;;;;;;11.18;5.20;;;;;;;;;;5026754;28;20052;-66
2022/06/01 06:15:51;;;;;;;10.37;5.27;;;;;;;;;;5024293;28;20043;-66
2022/06/01 06:18:16;;;;;;;9.68;5.18;;;;;;;;;;5030147;28;20660;-66
2022/06/01 06:20:42;;;;;;;12.65;5.13;;;;;;;;;;5026924;28;20029;-67
2022/06/01 06:23:08;;;;;;;9.32;4.55;;;;;;;;;;5024876;28;20462;-66
2022/06/01 06:25:33;;;;;;;6.65;4.07;;;;;;;;;;5022177;28;20041;-65
2022/06/01 06:27:58;;;;;;;8.93;3.70;;;;;;;;;;5026109;28;20032;-66
2022/06/01 06:30:23;;;;;;;9.10;4.40;;;;;;;;;;5007715;28;20350;-66
2022/06/01 06:32:49;;;;;;;11.27;4.87;;;;;;;;;;5027446;28;20057;-66
2022/06/01 06:35:14;;;;;;;9.40;4.63;;;;;;;;;;5025333;28;20305;-66
2022/06/01 06:37:39;;;;;;;9.73;4.53;;;;;;;;;;5025705;28;20291;-66
2022/06/01 06:40:05;;;;;;;15.43;4.50;;;;;;;;;;5024083;28;20528;-66
2022/06/01 06:42:30;;;;;;;16.73;4.47;;;;;;;;;;5030164;28;20048;-66
2022/06/01 06:44:55;;;;;;;11.90;5.10;;;;;;;;;;5026208;28;20064;-66
2022/06/01 06:47:20;;;;;;;18.33;5.13;;;;;;;;;;5024810;28;20763;-66
2022/06/01 06:49:46;;;;;;;12.17;3.73;;;;;;;;;;5024276;28;20279;-66
2022/06/01 06:52:11;;;;;;;12.30;3.45;;;;;;;;;;5028759;28;20311;-66
2022/06/01 06:54:36;;;;;;;6.20;3.33;;;;;;;;;;5020467;28;20052;-66
2022/06/01 06:57:01;;;;;;;10.05;3.20;;;;;;;;;;5026511;28;20272;-66
2022/06/01 06:59:26;;;;;;;9.15;3.72;;;;;;;;;;5027019;28;20447;-66
2022/06/01 07:01:52;;;;;;;7.20;2.45;;;;;;;;;;5019333;28;20032;-66
2022/06/01 07:04:18;;;;;;;12.90;3.30;;;;;;;;;;5024712;28;20022;-66
2022/06/01 07:06:43;;;;;;;10.13;2.88;;;;;;;;;;5030158;28;20395;-66
2022/06/01 07:09:09;;;;;;;12.18;3.33;;;;;;;;;;5030213;28;20053;-66
2022/06/01 07:11:34;;;;;;;11.00;3.45;;;;;;;;;;5029066;28;20481;-66
2022/06/01 07:14:00;;;;;;;13.05;2.83;;;;;;;;;;5010820;28;20075;-66
2022/06/01 07:16:27;;;;;;;8.70;2.88;;;;;;;;;;5026142;28;20067;-66
2022/06/01 07:18:53;;;;;;;7.18;2.33;;;;;;;;;;5027625;28;20147;-66
2022/06/01 07:21:19;;;;;;;9.90;2.95;;;;;;;;;;5023615;28;20025;-66
2022/06/01 07:23:45;;;;;;;4.63;2.20;;;;;;;;;;5030201;28;20024;-66
2022/06/01 07:26:11;;;;;;;5.15;2.08;;;;;;;;;;5020140;28;20021;-65
2022/06/01 07:28:37;;;;;;;6.30;2.45;;;;;;;;;;5024578;28;20021;-66
2022/06/01 07:31:04;;;;;;;17.42;2.53;;;;;;;;;;5026383;28;20496;-66
2022/06/01 07:33:29;;;;;;;6.60;2.53;;;;;;;;;;5030576;28;20033;-65
2022/06/01 07:35:55;;;;;;;8.63;2.35;;;;;;;;;;5028107;28;20022;-66
2022/06/01 07:43:49;;;;;;;6.53;2.25;;;;;;;;;;5029740;28;20104;-66
2022/06/01 07:46:14;;;;;;;6.77;2.53;;;;;;;;;;5020530;28;20025;-66
2022/06/01 07:48:39;;;;;;;7.83;2.20;;;;;;;;;;5029847;28;20280;-67
2022/06/01 07:51:05;;;;;;;6.77;1.90;;;;;;;;;;5026369;28;20682;-66
2022/06/01 07:53:30;;;;;;;3.67;1.67;;;;;;;;;;5033958;28;20275;-66
2022/06/01 07:55:55;;;;;;;8.05;1.98;;;;;;;;;;5033458;28;20413;-66
2022/06/01 07:58:21;;;;;;;5.97;2.03;;;;;;;;;;5027021;28;20025;-66
2022/06/01 08:00:47;;;;;;;5.45;1.92;;;;;;;;;;5022708;28;20272;-66
2022/06/01 08:03:13;;;;;;;15.40;3.10;;;;;;;;;;5021812;28;20021;-66
2022/06/01 08:05:39;;;;;;;8.45;2.80;;;;;;;;;;5026052;28;20021;-66
2022/06/01 08:08:04;;;;;;;6.53;1.95;;;;;;;;;;5031228;28;20397;-66
2022/06/01 08:10:29;;;;;;;4.85;2.15;;;;;;;;;;5026115;28;20116;-66
2022/06/01 08:13:07;;;;;;;8.35;1.70;;;;;;;;;;5031314;28;20105;-66
2022/06/01 08:15:37;;;;;;;8.55;2.28;;;;;;;;;;5028378;28;20035;-66
2022/06/01 08:18:03;;;;;;;9.57;2.22;;;;;;;;;;5028249;28;20144;-66
2022/06/01 08:20:29;;;;;;;4.72;1.70;;;;;;;;;;5029497;28;20108;-66
2022/06/01 08:22:54;;;;;;;7.25;1.77;;;;;;;;;;5020943;28;20024;-66
2022/06/01 08:25:20;;;;;;;7.70;1.90;;;;;;;;;;5023224;28;20440;-66
2022/06/01 08:27:46;;;;;;;7.97;2.17;;;;;;;;;;5039141;28;20481;-66
2022/06/01 08:30:12;;;;;;;7.47;1.92;;;;;;;;;;5027379;28;20034;-66
2022/06/01 08:32:37;;;;;;;6.68;1.67;;;;;;;;;;5026616;28;20045;-66
2022/06/01 08:35:03;;;;;;;4.90;1.70;;;;;;;;;;5032509;28;20524;-66
2022/06/01 08:37:29;;;;;;;7.15;2.08;;;;;;;;;;5026594;28;20083;-66
2022/06/01 08:39:54;;;;;;;11.85;2.13;;;;;;;;;;5023962;28;20014;-66
2022/06/01 08:42:21;;;;;;;5.43;2.20;;;;;;;;;;5023624;28;20027;-66
2022/06/01 08:44:47;;;;;;;5.05;1.98;;;;;;;;;;5021376;28;20069;-66
2022/06/01 08:47:19;;;;;;;9.10;2.05;;;;;;;;;;5028892;28;20485;-67
2022/06/01 08:49:45;;;;;;;5.30;1.48;;;;;;;;;;5028758;28;20033;-66
2022/06/01 08:52:11;;;;;;;9.68;1.88;;;;;;;;;;5033460;28;20093;-66
2022/06/01 08:54:36;;;;;;;5.78;1.48;;;;;;;;;;5020940;28;20017;-66
2022/06/01 08:57:28;;;;;;;5.53;1.60;;;;;;;;;;5033115;28;20462;-66
2022/06/01 09:00:23;;;;;;;8.57;1.83;;;;;;;;;;5021364;28;20025;-66
2022/06/01 09:02:51;;;;;;;8.00;2.17;;;;;;;;;;5004108;28;20080;-66
2022/06/01 09:05:22;;;;;;;6.72;2.13;;;;;;;;;;5029087;28;20025;-67
2022/06/01 09:07:50;;;;;;;11.20;1.80;;;;;;;;;;5027794;28;20100;-67
2022/06/01 09:10:15;;;;;;;6.55;1.92;;;;;;;;;;5022073;28;20031;-67
2022/06/01 09:12:41;;;;;;;7.22;2.20;;;;;;;;;;5027448;28;20056;-67
2022/06/01 09:15:17;;;;;;;4.97;1.75;;;;;;;;;;5035634;28;20025;-67
2022/06/01 09:17:43;;;;;;;7.13;2.10;;;;;;;;;;5029371;28;20021;-67
2022/06/01 09:22:53;;;;;;;5.88;1.92;;;;;;;;;;5027217;28;20055;-67
2022/06/01 09:25:20;;;;;;;4.78;1.25;;;;;;;;;;5026567;28;20518;-67
2022/06/01 09:27:47;;;;;;;7.07;1.75;;;;;;;;;;5032798;28;20029;-67
2022/06/01 09:30:36;;;;;;;4.72;1.55;;;;;;;;;;5028359;28;20014;-67
2022/06/01 09:33:21;;;;;;;10.25;1.50;;;;;;;;;;5016734;28;20387;-67
2022/06/01 09:36:05;;;;;;;7.07;1.52;;;;;;;;;;5027630;28;20033;-64
2022/06/01 09:38:36;;;;;;;8.00;1.52;;;;;;;;;;5009538;28;20022;-66
2022/06/01 09:41:06;;;;;;;3.72;1.20;;;;;;;;;;5028779;28;20474;-66
2022/06/01 09:43:32;;;;;;;4.45;1.25;;;;;;;;;;5020901;28;20100;-67
2022/06/01 09:45:57;;;;;;;2.80;1.20;;;;;;;;;;5027925;28;20096;-66
2022/06/01 09:48:27;;;;;;;5.35;1.40;;;;;;;;;;5027633;28;20462;-67
2022/06/01 09:51:11;;;;;;;4.38;1.40;;;;;;;;;;5030246;28;20051;-66
2022/06/01 09:53:59;;;;;;;4.00;1.77;;;;;;;;;;5027035;28;20743;-66
2022/06/01 09:56:32;;;;;;;6.47;1.85;;;;;;;;;;5016081;28;20041;-66
2022/06/01 10:07:21;;;;;;;5.72;1.40;;;;;;;;;;5029089;28;20091;-66
2022/06/01 10:09:50;;;;;;;2.88;1.20;;;;;;;;;;5027426;28;20025;-66
2022/06/01 10:12:39;;;;;;;5.75;1.52;;;;;;;;;;5031699;28;20478;-66
2022/06/01 10:15:11;;;;;;;8.02;2.00;;;;;;;;;;5025329;28;20120;-67
2022/06/01 10:17:38;;;;;;;4.97;1.33;;;;;;;;;;5025233;28;20409;-66
2022/06/01 10:20:03;;;;;;;3.22;1.42;;;;;;;;;;5026364;28;20494;-66
2022/06/01 10:22:38;;;;;;;4.85;1.40;;;;;;;;;;5023246;28;20055;-67
2022/06/01 10:25:07;;;;;;;6.55;2.70;;;;;;;;;;5026388;28;20017;-67
2022/06/01 10:27:38;;;;;;;9.35;1.73;;;;;;;;;;5029087;28;20025;-67
2022/06/01 10:30:06;;;;;;;8.60;1.35;;;;;;;;;;5021015;28;20073;-67
2022/06/01 10:32:47;;;;;;;7.05;1.05;;;;;;;;;;5023859;28;20340;-67
2022/06/01 10:35:12;;;;;;;;;;;;;;;;;;5018425;28;20017;-67
2022/06/01 10:37:40;;;;;;;2.90;1.20;;;;;;;;;;5024758;28;19921;-67
2022/06/01 10:40:07;;;;;;;3.40;1.48;;;;;;;;;;5023917;28;20032;-67
2022/06/01 10:45:20;;;;;;;3.88;1.35;;;;;;;;;;5015836;28;20031;-67
2022/06/01 10:47:48;;;;;;;3.85;1.05;;;;;;;;;;5029623;28;20029;-67
2022/06/01 10:50:22;;;;;;;5.30;1.75;;;;;;;;;;5025159;28;20092;-67
2022/06/01 10:52:56;;;;;;;8.30;1.90;;;;;;;;;;5026621;28;20033;-67
2022/06/01 10:55:27;;;;;;;6.53;1.80;;;;;;;;;;5014484;28;20026;-67
2022/06/01 10:57:56;;;;;;;5.75;1.38;;;;;;;;;;5017829;28;20032;-67
2022/06/01 11:00:22;;;;;;;3.35;1.30;;;;;;;;;;5016123;28;20466;-67
2022/06/01 11:02:47;;;;;;;6.20;1.83;;;;;;;;;;5019506;28;20039;-67
2022/06/01 11:05:27;;;;;;;6.77;2.03;;;;;;;;;;5025108;28;20456;-67
2022/06/01 11:07:53;;;;;;;;;;;;;;;;;;5020799;28;20617;-67
2022/06/01 11:10:25;;;;;;;3.80;1.42;;;;;;;;;;5023253;28;19916;-67
2022/06/01 11:12:56;;;;;;;5.25;1.20;;;;;;;;;;5031405;28;20025;-67
2022/06/01 11:15:26;;;;;;;2.95;1.10;;;;;;;;;;5022603;28;20188;-67
2022/06/01 11:17:56;;;;;;;7.78;1.60;;;;;;;;;;5030557;28;20018;-67
2022/06/01 11:20:36;;;;;;;6.15;1.80;;;;;;;;;;5026949;28;20018;-67
2022/06/01 11:23:01;;;;;;;;;;;;;;;;;;5029416;28;20073;-67
2022/06/01 11:25:33;;;;;;;4.05;1.67;;;;;;;;;;5020148;28;19925;-67
2022/06/01 11:27:58;;;;;;;7.28;1.20;;;;;;;;;;5025830;28;20474;-67
2022/06/01 11:30:31;;;;;;;10.30;1.75;;;;;;;;;;5025190;28;20029;-67
2022/06/01 11:33:05;;;;;;;6.72;1.40;;;;;;;;;;5025092;28;20363;-67
2022/06/01 11:35:41;;;;;;;2.83;1.27;;;;;;;;;;5027378;28;20049;-67
2022/06/01 11:38:06;;;;;;;3.28;1.25;;;;;;;;;;5026704;28;20022;-67
2022/06/01 11:40:37;;;;;;;6.93;1.55;;;;;;;;;;5021891;28;20028;-67
2022/06/01 11:43:06;;;;;;;6.45;1.63;;;;;;;;;;5026026;28;20435;-67
2022/06/01 11:45:33;;;;;;;4.63;1.52;;;;;;;;;;5025146;28;20021;-67
2022/06/01 11:48:03;;;;;;;9.68;1.90;;;;;;;;;;5028994;28;20029;-67
2022/06/01 11:50:34;;;;;;;6.50;1.77;;;;;;;;;;5016055;28;20026;-67
2022/06/01 11:53:05;;;;;;;7.25;1.60;;;;;;;;;;5017663;28;20095;-67
2022/06/01 11:55:36;;;;;;;4.65;1.95;;;;;;;;;;5028800;28;20021;-67
2022/06/01 11:58:04;;;;;;;4.70;1.92;;;;;;;;;;5018186;28;20022;-67
2022/06/01 12:00:57;;;;;;;3.05;1.40;;;;;;;;;;5022240;28;20591;-67
2022/06/01 12:03:24;;;;;;;5.90;2.03;;;;;;;;;;5018938;28;20511;-66
2022/06/01 12:06:11;;;;;;;5.95;1.50;;;;;;;;;;5026097;28;20025;-66
2022/06/01 12:08:53;;;;;;;9.85;1.50;;;;;;;;;;5031249;28;20446;-67
2022/06/01 12:11:38;;;;;;;7.53;1.60;;;;;;;;;;5017197;28;20359;-67
2022/06/01 12:14:17;;;;;;;3.38;1.35;;;;;;;;;;5033271;28;20533;-67
2022/06/01 12:16:43;;;;;;;4.80;1.90;;;;;;;;;;5026404;28;20051;-67
2022/06/01 12:19:11;;;;;;;3.50;1.42;;;;;;;;;;5023276;28;20747;-67
2022/06/01 12:21:42;;;;;;;5.80;1.70;;;;;;;;;;5021577;28;20387;-67
2022/06/01 12:29:59;;;;;;;6.32;1.45;;;;;;;;;;4992078;28;20073;-70
2022/06/01 12:32:25;;;;;;;7.80;1.25;;;;;;;;;;4999674;28;20105;-72
2022/06/01 12:34:57;;;;;;;4.93;1.20;;;;;;;;;;4999741;28;20044;-69
2022/06/01 12:37:22;;;;;;;6.15;1.20;;;;;;;;;;5000083;28;20022;-69
2022/06/01 12:39:52;;;;;;;6.95;1.17;;;;;;;;;;4990617;28;20175;-69
2022/06/01 12:42:28;;;;;;;9.77;1.75;;;;;;;;;;5007307;28;20141;-70
2022/06/01 12:44:55;;;;;;;3.58;1.27;;;;;;;;;;4998168;28;20042;-69
2022/06/01 12:47:22;;;;;;;5.57;1.20;;;;;;;;;;4999607;28;20027;-68
2022/06/01 12:49:48;;;;;;;4.47;1.52;;;;;;;;;;5003618;28;20022;-69
2022/06/01 12:52:16;;;;;;;6.22;1.20;;;;;;;;;;4994931;28;20382;-68
2022/06/01 12:54:51;;;;;;;3.83;1.30;;;;;;;;;;4997238;28;20515;-68
2022/06/01 12:57:33;;;;;;;4.53;1.30;;;;;;;;;;4998245;28;20080;-70
2022/06/01 13:00:11;;;;;;;7.63;1.90;;;;;;;;;;4993766;28;20028;-68
2022/06/01 13:02:37;;;;;;;3.33;1.40;;;;;;;;;;4990219;28;20496;-68
2022/06/01 13:05:04;;;;;;;5.13;2.15;;;;;;;;;;5000136;28;20072;-71
2022/06/01 13:07:31;;;;;;;9.43;1.85;;;;;;;;;;4997709;28;20018;-68
2022/06/01 13:09:58;;;;;;;4.82;1.38;;;;;;;;;;4992020;28;20113;-69
2022/06/01 13:12:27;;;;;;;13.98;2.33;;;;;;;;;;4995354;28;20044;-69
2022/06/01 13:14:53;;;;;;;6.55;1.42;;;;;;;;;;5003169;28;20025;-69
2022/06/01 13:17:18;;;;;;;6.25;2.00;;;;;;;;;;5001211;28;20023;-69
2022/06/01 13:19:55;;;;;;;5.45;1.23;;;;;;;;;;4999273;28;20017;-69
2022/06/01 13:22:25;;;;;;;9.00;2.17;;;;;;;;;;4999957;28;20030;-71
2022/06/01 13:25:05;;;;;;;8.20;1.02;;;;;;;;;;5001161;28;20032;-69
2022/06/01 13:27:32;;;;;;;4.28;1.33;;;;;;;;;;4993702;28;20041;-69
2022/06/01 13:30:01;;;;;;;6.68;1.27;;;;;;;;;;5007290;28;20037;-69
2022/06/01 13:32:30;;;;;;;5.75;1.10;;;;;;;;;;4993708;28;20076;-69
2022/06/01 13:35:01;;;;;;;3.85;1.42;;;;;;;;;;5004467;28;20029;-71
2022/06/01 13:37:27;;;;;;;6.72;1.02;;;;;;;;;;4998949;28;20422;-68
2022/06/01 13:39:52;;;;;;;3.13;1.30;;;;;;;;;;5002737;28;20072;-69
2022/06/01 13:42:22;;;;;;;8.52;1.65;;;;;;;;;;5003381;28;20511;-70
2022/06/01 13:45:16;;;;;;;10.63;1.65;;;;;;;;;;4998291;28;20319;-70
2022/06/01 13:47:54;;;;;;;3.33;1.58;;;;;;;;;;4986168;28;20034;-70
2022/06/01 13:50:24;;;;;;;4.55;1.33;;;;;;;;;;5003303;28;20045;-69
2022/06/01 13:53:01;;;;;;;3.75;1.40;;;;;;;;;;5003653;28;20040;-70
2022/06/01 13:55:30;;;;;;;3.97;1.52;;;;;;;;;;4996431;28;20482;-70
2022/06/01 13:57:57;;;;;;;8.50;1.77;;;;;;;;;;5003504;28;20049;-69
2022/06/01 14:00:42;;;;;;;3.15;1.48;;;;;;;;;;4993001;28;20105;-71
2022/06/01 14:03:10;;;;;;;4.28;1.58;;;;;;;;;;4987465;28;20093;-70
2022/06/01 14:05:39;;;;;;;5.80;1.48;;;;;;;;;;4989526;28;20026;-69
2022/06/01 14:08:07;;;;;;;7.07;1.57;;;;;;;;;;4985731;28;20050;-70
2022/06/01 14:10:40;;;;;;;3.65;2.00;;;;;;;;;;4988494;28;20113;-70
2022/06/01 14:13:05;;;;;;;5.85;1.73;;;;;;;;;;4988950;28;20338;-70
2022/06/01 14:15:32;;;;;;;3.78;2.20;;;;;;;;;;4981288;28;20406;-70
2022/06/01 14:17:57;;;;;;;4.63;1.48;;;;;;;;;;4986258;28;20554;-69
2022/06/01 14:20:23;;;;;;;3.13;1.58;;;;;;;;;;4991534;28;20089;-71
2022/06/01 14:22:48;;;;;;;5.30;1.58;;;;;;;;;;4989165;28;20150;-70
2022/06/01 14:30:41;;;;;;;4.82;1.95;;;;;;;;;;4988509;28;20041;-69
2022/06/01 14:33:07;;;;;;;2.30;1.73;;;;;;;;;;4987499;28;20018;-69
2022/06/01 14:35:32;;;;;;;2.88;1.80;;;;;;;;;;4987196;28;20685;-69
2022/06/01 14:37:58;;;;;;;4.30;2.30;;;;;;;;;;4991700;28;20042;-69
2022/06/01 14:40:23;;;;;;;3.37;2.77;;;;;;;;;;4991027;28;20265;-70
2022/06/01 14:42:48;;;;;;;3.17;2.30;;;;;;;;;;4990292;28;20331;-69
2022/06/01 14:45:14;;;;;;;6.30;2.73;;;;;;;;;;4998181;28;20077;-69
2022/06/01 14:47:39;;;;;;;6.97;3.25;;;;;;;;;;4987056;28;20284;-70
2022/06/01 14:50:05;;;;;;;4.82;2.65;;;;;;;;;;4987673;28;20071;-69
2022/06/01 14:52:30;;;;;;;2.97;2.45;;;;;;;;;;4992712;28;20022;-70
2022/06/01 14:54:55;;;;;;;6.47;2.63;;;;;;;;;;4996227;28;20486;-70
2022/06/01 14:57:21;;;;;;;3.00;2.03;;;;;;;;;;5009084;28;20397;-69
2022/06/01 14:59:46;;;;;;;5.90;2.13;;;;;;;;;;5000157;28;20026;-69
2022/06/01 15:02:12;;;;;;;8.80;2.70;;;;;;;;;;4989209;28;21095;-69
2022/06/01 15:04:38;;;;;;;4.97;2.53;;;;;;;;;;4995439;28;20430;-69
2022/06/01 15:07:04;;;;;;;2.75;1.83;;;;;;;;;;4999128;28;20033;-69
2022/06/01 15:09:31;;;;;;;9.27;2.42;;;;;;;;;;4993423;28;20022;-69
2022/06/01 15:11:57;;;;;;;2.40;1.75;;;;;;;;;;5001426;28;20018;-69
2022/06/01 15:14:22;;;;;;;7.03;2.47;;;;;;;;;;5001123;28;20023;-69
2022/06/01 15:16:55;;;;;;;3.83;1.77;;;;;;;;;;5004139;28;20037;-70
2022/06/01 15:19:20;;;;;;;3.45;1.70;;;;;;;;;;4990738;28;20749;-69
2022/06/01 15:21:51;;;;;;;8.80;2.03;;;;;;;;;;5000957;28;20042;-70
2022/06/01 15:24:16;;;;;;;5.78;1.83;;;;;;;;;;4997609;28;20022;-69
2022/06/01 15:26:42;;;;;;;5.20;2.83;;;;;;;;;;4989310;28;20479;-69